Time;durP1;ratioP1;P1;durP2;ratioP2;P2;SDS_P1;SDS_P2;PMS_P1;PMS_P2;Temp;Humidity;BMP_temperature;BMP_pressure;BME280_temperature;BME280_humidity;BME280_pressure;Samples;Min_cycle;Max_cycle;Signal;HPM_P1;HPM_P2
2022/08/28 00:01:52;;;;;;;;;;;16.70;99.90;;;;;;5055646;28;19964;-59
2022/08/28 00:04:18;;;;;;;;;;;16.70;99.90;;;;;;5056368;28;19943;-58
2022/08/28 00:06:43;;;;;;;;;;;16.60;99.90;;;;;;5056246;28;19921;-59
2022/08/28 00:09:09;;;;;;;;;;;16.50;99.90;;;;;;5055529;28;19928;-59
2022/08/28 00:11:36;;;;;;;;;;;16.40;99.90;;;;;;5056182;28;19927;-59
2022/08/28 00:14:03;;;;;;;;;;;16.40;99.90;;;;;;5056092;28;19999;-59
2022/08/28 00:16:30;;;;;;;;;;;16.30;99.90;;;;;;5054778;28;19927;-59
2022/08/28 00:18:56;;;;;;;1999.90;999.90;;;16.20;99.90;;;;;;5054280;28;19921;-59
2022/08/28 00:21:22;;;;;;;1999.90;999.90;;;16.20;99.90;;;;;;5055809;28;20386;-59
2022/08/28 00:23:47;;;;;;;1999.90;999.90;;;16.10;99.90;;;;;;5054278;28;20124;-59
2022/08/28 00:27:51;;;;;;;1999.90;999.90;;;16.10;99.90;;;;;;5055177;28;20037;-59
2022/08/28 00:28:59;;;;;;;1999.90;999.90;;;16.10;99.90;;;;;;5055313;28;20052;-59
2022/08/28 00:31:25;;;;;;;1999.90;999.90;;;16.10;99.90;;;;;;5054234;28;20043;-59
2022/08/28 00:33:51;;;;;;;1999.90;999.90;;;16.10;99.90;;;;;;5087176;28;20056;-59
2022/08/28 00:36:18;;;;;;;1999.90;999.90;;;16.10;99.90;;;;;;5055474;28;20478;-59
2022/08/28 00:38:44;;;;;;;1999.90;999.90;;;16.10;99.90;;;;;;5054390;28;20119;-59
2022/08/28 00:41:10;;;;;;;1999.90;999.90;;;16.20;99.90;;;;;;5053825;28;20403;-59
2022/08/28 00:43:40;;;;;;;1999.90;999.90;;;16.20;99.90;;;;;;5055413;28;20444;-59
2022/08/28 00:46:10;;;;;;;1999.90;999.90;;;16.30;99.90;;;;;;5054213;28;20045;-59
2022/08/28 00:48:36;;;;;;;1999.90;999.90;;;16.30;99.90;;;;;;5053743;28;20092;-59
2022/08/28 00:53:48;;;;;;;1999.90;999.90;;;16.50;99.90;;;;;;5049749;28;20095;-59
2022/08/28 00:56:17;;;;;;;1999.90;999.90;;;16.50;99.90;;;;;;5053492;28;20072;-59
2022/08/28 00:58:44;;;;;;;1999.90;999.90;;;16.40;99.90;;;;;;5054346;28;20048;-59
2022/08/28 01:01:12;;;;;;;1999.90;999.90;;;16.40;99.90;;;;;;5054532;28;20499;-59
2022/08/28 01:03:38;;;;;;;1999.90;999.90;;;16.40;99.90;;;;;;5054954;28;20049;-59
2022/08/28 01:06:05;;;;;;;1999.90;999.90;;;16.30;99.90;;;;;;5054251;28;20068;-59
2022/08/28 01:08:32;;;;;;;1999.90;999.90;;;16.20;99.90;;;;;;5054289;28;20377;-59
2022/08/28 01:11:01;;;;;;;1999.90;999.90;;;16.10;99.90;;;;;;5053291;28;20045;-59
2022/08/28 01:13:28;;;;;;;1999.90;999.90;;;16.00;99.90;;;;;;5052263;28;20048;-59
2022/08/28 01:15:54;;;;;;;1999.90;999.90;;;15.90;99.90;;;;;;5054323;28;20037;-59
2022/08/28 01:18:21;;;;;;;1999.90;999.90;;;15.90;99.90;;;;;;5054354;28;20045;-59
2022/08/28 01:20:58;;;;;;;1999.90;999.90;;;15.90;99.90;;;;;;5053744;28;20550;-59
2022/08/28 01:23:44;;;;;;;1999.90;999.90;;;15.80;99.90;;;;;;5054057;28;20550;-58
2022/08/28 01:26:10;;;;;;;1999.90;999.90;;;15.80;99.90;;;;;;5052646;28;20047;-59
2022/08/28 01:28:36;;;;;;;1999.90;999.90;;;15.90;99.90;;;;;;5054404;28;20045;-58
2022/08/28 01:31:02;;;;;;;1999.90;999.90;;;15.90;99.90;;;;;;5054024;28;20403;-59
2022/08/28 01:33:28;;;;;;;1999.90;999.90;;;15.90;99.90;;;;;;5053397;28;20045;-59
2022/08/28 01:35:54;;;;;;;1999.90;999.90;;;15.90;99.90;;;;;;5053709;28;20045;-59
2022/08/28 01:38:19;;;;;;;1999.90;999.90;;;15.80;99.90;;;;;;5051568;28;20092;-59
2022/08/28 01:40:48;;;;;;;1999.90;999.90;;;15.80;99.90;;;;;;5053658;28;20044;-59
2022/08/28 01:43:18;;;;;;;1999.90;999.90;;;15.80;99.90;;;;;;5052253;28;20060;-58
2022/08/28 01:45:51;;;;;;;1999.90;999.90;;;15.70;99.90;;;;;;5053912;28;20049;-59
2022/08/28 01:48:18;;;;;;;1999.90;999.90;;;15.60;99.90;;;;;;5053294;28;20132;-59
2022/08/28 01:50:44;;;;;;;1999.90;999.90;;;15.60;99.90;;;;;;5054118;28;20459;-59
2022/08/28 01:53:15;;;;;;;1999.90;999.90;;;15.60;99.90;;;;;;5053053;28;20076;-59
2022/08/28 01:55:41;;;;;;;1999.90;999.90;;;15.50;99.90;;;;;;5053390;28;20137;-58
2022/08/28 01:58:07;;;;;;;1999.90;999.90;;;15.50;99.90;;;;;;5053880;28;20041;-58
2022/08/28 02:00:34;;;;;;;1999.90;999.90;;;15.50;99.90;;;;;;5053583;28;20092;-59
2022/08/28 02:03:00;;;;;;;1999.90;999.90;;;15.50;99.90;;;;;;5052318;28;20055;-58
2022/08/28 02:05:29;;;;;;;1999.90;999.90;;;15.40;99.90;;;;;;5053877;28;20103;-58
2022/08/28 02:07:56;;;;;;;1999.90;999.90;;;15.50;99.90;;;;;;5053365;28;20169;-59
2022/08/28 02:10:23;;;;;;;1999.90;999.90;;;15.50;99.90;;;;;;5052964;28;20041;-59
2022/08/28 02:12:50;;;;;;;1999.90;999.90;;;15.50;99.90;;;;;;5053425;28;20037;-59
2022/08/28 02:15:16;;;;;;;1999.90;999.90;;;15.50;99.90;;;;;;5053432;28;20086;-59
2022/08/28 02:17:41;;;;;;;1999.90;999.90;;;15.60;99.90;;;;;;5052521;28;20135;-59
2022/08/28 02:20:08;;;;;;;1999.90;999.90;;;15.60;99.90;;;;;;5051986;28;20509;-59
2022/08/28 02:22:34;;;;;;;1999.90;999.90;;;15.60;99.90;;;;;;5052392;28;20040;-59
2022/08/28 02:25:00;;;;;;;1999.90;999.90;;;15.50;99.90;;;;;;5053502;28;20411;-59
2022/08/28 02:27:26;;;;;;;1999.90;999.90;;;15.60;99.90;;;;;;5053127;28;20040;-59
2022/08/28 02:29:52;;;;;;;1999.90;999.90;;;15.60;99.90;;;;;;5052361;28;20045;-59
2022/08/28 02:32:17;;;;;;;1999.90;999.90;;;15.50;99.90;;;;;;5053155;28;20773;-59
2022/08/28 02:34:43;;;;;;;1999.90;999.90;;;15.50;99.90;;;;;;5053288;28;20124;-58
2022/08/28 02:37:12;;;;;;;1999.90;999.90;;;15.50;99.90;;;;;;5051831;28;20084;-59
2022/08/28 02:39:38;;;;;;;1999.90;999.90;;;15.40;99.90;;;;;;5053319;28;20533;-59
2022/08/28 02:42:04;;;;;;;1999.90;999.90;;;15.40;99.90;;;;;;5053261;28;20099;-59
2022/08/28 02:44:30;;;;;;;1999.90;999.90;;;15.40;99.90;;;;;;5051986;28;20216;-59
2022/08/28 02:46:56;;;;;;;1999.90;999.90;;;15.40;99.90;;;;;;5052432;28;20046;-58
2022/08/28 02:49:22;;;;;;;1999.90;999.90;;;15.30;99.90;;;;;;5052865;28;20044;-58
2022/08/28 02:51:49;;;;;;;1999.90;999.90;;;15.20;99.90;;;;;;5051839;28;20041;-59
2022/08/28 02:54:15;;;;;;;1999.90;999.90;;;15.20;99.90;;;;;;5051100;28;20041;-59
2022/08/28 02:56:41;;;;;;;1999.90;999.90;;;;;;;;;;5052629;28;20495;-59
2022/08/28 02:59:07;;;;;;;1999.90;999.90;;;;;;;;;;5050618;28;20083;-58
2022/08/28 03:01:33;;;;;;;1999.90;999.90;;;14.90;99.90;;;;;;5051744;28;20163;-59
2022/08/28 03:04:04;;;;;;;1999.90;999.90;;;14.70;99.90;;;;;;5052530;28;20399;-59
2022/08/28 03:06:30;;;;;;;1999.90;999.90;;;14.80;99.90;;;;;;5050399;28;20058;-58
2022/08/28 03:08:56;;;;;;;1999.90;999.90;;;14.70;99.90;;;;;;5052921;28;20103;-59
2022/08/28 03:11:22;;;;;;;1999.90;999.90;;;14.60;99.90;;;;;;5052891;28;20064;-59
2022/08/28 03:13:49;;;;;;;1999.90;999.90;;;14.70;99.90;;;;;;5050836;28;20515;-59
2022/08/28 03:16:15;;;;;;;1999.90;999.90;;;14.70;99.90;;;;;;5052840;28;20056;-58
2022/08/28 03:18:41;;;;;;;1999.90;999.90;;;14.60;99.90;;;;;;5052264;28;20499;-59
2022/08/28 03:21:07;;;;;;;1999.90;999.90;;;14.60;99.90;;;;;;5051955;28;20036;-59
2022/08/28 03:23:33;;;;;;;1999.90;999.90;;;14.60;99.90;;;;;;5052368;28;20053;-58
2022/08/28 03:26:04;;;;;;;1999.90;999.90;;;14.50;99.90;;;;;;5052004;28;20049;-58
2022/08/28 03:28:34;;;;;;;1999.90;999.90;;;14.50;99.90;;;;;;5050962;28;20388;-58
2022/08/28 03:31:00;;;;;;;1999.90;999.90;;;14.50;99.90;;;;;;5050793;28;20479;-59
2022/08/28 03:33:26;;;;;;;1999.90;999.90;;;14.60;99.90;;;;;;5050487;28;20055;-58
2022/08/28 03:35:53;;;;;;;1999.90;999.90;;;14.60;99.90;;;;;;5052641;28;20084;-58
2022/08/28 03:38:20;;;;;;;1999.90;999.90;;;14.60;99.90;;;;;;5050790;28;20048;-58
2022/08/28 03:40:46;;;;;;;1999.90;999.90;;;14.60;99.90;;;;;;5051627;28;20053;-59
2022/08/28 03:43:15;;;;;;;1999.90;999.90;;;14.70;99.90;;;;;;5052178;28;20056;-58
2022/08/28 03:45:50;;;;;;;1999.90;999.90;;;14.80;99.90;;;;;;5050678;28;20110;-59
2022/08/28 03:48:17;;;;;;;1999.90;999.90;;;14.80;99.90;;;;;;5050164;28;20407;-58
2022/08/28 03:50:44;;;;;;;1999.90;999.90;;;14.90;99.90;;;;;;5052265;28;20459;-59
2022/08/28 03:53:10;;;;;;;1999.90;999.90;;;15.00;99.90;;;;;;5052195;28;20047;-59
2022/08/28 03:55:35;;;;;;;1999.90;999.90;;;14.90;99.90;;;;;;5051625;28;20123;-59
2022/08/28 03:58:01;;;;;;;1999.90;999.90;;;15.00;99.90;;;;;;5050548;28;20461;-58
2022/08/28 04:00:27;;;;;;;1999.90;999.90;;;15.00;99.90;;;;;;5052016;28;20049;-59
2022/08/28 04:02:52;;;;;;;1999.90;999.90;;;15.00;99.90;;;;;;5054231;28;20048;-59
2022/08/28 04:05:18;;;;;;;1999.90;999.90;;;15.00;99.90;;;;;;5055592;28;20072;-59
2022/08/28 04:07:44;;;;;;;1999.90;999.90;;;15.00;99.90;;;;;;5055818;28;20040;-59
2022/08/28 04:10:11;;;;;;;1999.90;999.90;;;15.10;99.90;;;;;;5053744;28;20179;-58
2022/08/28 04:12:37;;;;;;;1999.90;999.90;;;15.10;99.90;;;;;;5055900;28;20494;-59
2022/08/28 04:15:04;;;;;;;1999.90;999.90;;;15.20;99.90;;;;;;5054060;28;20057;-58
2022/08/28 04:17:30;;;;;;;1999.90;999.90;;;15.20;99.90;;;;;;5055774;28;20064;-59
2022/08/28 04:19:55;;;;;;;;;;;15.30;99.90;;;;;;5056042;28;20048;-59
2022/08/28 04:22:21;;;;;;;;;;;15.30;99.90;;;;;;5054952;28;20405;-59
2022/08/28 04:24:47;;;;;;;;;;;15.30;99.90;;;;;;5056021;28;19924;-59
2022/08/28 04:27:13;;;;;;;;;;;15.30;99.90;;;;;;5056188;28;19925;-58
2022/08/28 04:29:39;;;;;;;;;;;15.30;99.90;;;;;;5055137;28;20019;-59
2022/08/28 04:32:05;;;;;;;;;;;15.20;99.90;;;;;;5055656;28;19921;-59
2022/08/28 04:34:31;;;;;;;;;;;15.20;99.90;;;;;;5055848;28;20050;-58
2022/08/28 04:36:57;;;;;;;;;;;15.30;99.90;;;;;;5054874;28;19928;-59
2022/08/28 04:39:22;;;;;;;;;;;15.30;99.90;;;;;;5055936;28;19924;-59
2022/08/28 04:41:49;;;;;;;;;;;15.20;99.90;;;;;;5054149;28;20422;-59
2022/08/28 04:44:15;;;;;;;;;;;15.30;99.90;;;;;;5054746;28;19928;-59
2022/08/28 04:46:40;;;;;;;;;;;15.30;99.90;;;;;;5055598;28;20441;-58
2022/08/28 04:49:06;;;;;;;;;;;15.40;99.90;;;;;;5055220;28;19962;-58
2022/08/28 04:51:32;;;;;;;;;;;15.50;99.90;;;;;;5054678;28;19920;-58
2022/08/28 04:53:58;;;;;;;;;;;15.50;99.90;;;;;;5055193;28;19928;-58
2022/08/28 04:56:23;;;;;;;;;;;15.60;99.90;;;;;;5055693;28;19927;-58
2022/08/28 04:58:49;;;;;;;;;;;15.60;99.90;;;;;;5054093;28;19921;-59
2022/08/28 05:01:17;;;;;;;;;;;15.60;99.90;;;;;;5054003;28;19921;-59
2022/08/28 05:03:44;;;;;;;;;;;15.60;99.90;;;;;;5055510;28;19920;-59
2022/08/28 05:06:12;;;;;;;1999.90;999.90;;;15.60;99.90;;;;;;5054285;28;19943;-59
2022/08/28 05:08:38;;;;;;;;;;;15.70;99.90;;;;;;5054870;28;20045;-59
2022/08/28 05:11:09;;;;;;;;;;;15.70;99.90;;;;;;5055270;28;20298;-58
2022/08/28 05:13:35;;;;;;;;;;;15.70;99.90;;;;;;5052447;28;19974;-59
2022/08/28 05:16:01;;;;;;;;;;;15.70;99.90;;;;;;5054638;28;20371;-59
2022/08/28 05:18:27;;;;;;;;;;;15.70;99.90;;;;;;5053158;28;19917;-59
2022/08/28 05:20:53;;;;;;;;;;;15.80;99.90;;;;;;5054773;28;20434;-58
2022/08/28 05:23:18;;;;;;;;;;;15.90;99.90;;;;;;5054941;28;20256;-59
2022/08/28 05:25:45;;;;;;;;;;;15.90;99.90;;;;;;5053997;28;19967;-58
2022/08/28 05:28:11;;;;;;;;;;;16.00;99.90;;;;;;5054803;28;19924;-58
2022/08/28 05:30:38;;;;;;;;;;;15.90;99.90;;;;;;5087047;28;19924;-58
2022/08/28 05:33:04;;;;;;;;;;;16.00;99.90;;;;;;5053923;28;19921;-59
2022/08/28 05:35:37;;;;;;;;;;;16.00;99.90;;;;;;5036278;28;19928;-59
2022/08/28 05:38:03;;;;;;;;;;;16.00;99.90;;;;;;5054859;28;20021;-58
2022/08/28 05:40:29;;;;;;;;;;;16.00;99.90;;;;;;5053917;28;19921;-59
2022/08/28 05:42:55;;;;;;;;;;;16.10;99.90;;;;;;5053357;28;19928;-58
2022/08/28 05:45:21;;;;;;;;;;;16.20;99.90;;;;;;5054258;28;20119;-59
2022/08/28 05:47:47;;;;;;;;;;;16.20;99.90;;;;;;5051546;28;20026;-58
2022/08/28 05:50:12;;;;;;;;;;;16.30;99.90;;;;;;5083761;28;20406;-58
2022/08/28 05:52:39;;;;;;;;;;;16.40;99.90;;;;;;5053645;28;20329;-59
2022/08/28 05:55:05;;;;;;;;;;;16.50;99.90;;;;;;5053085;28;19923;-59
2022/08/28 05:57:31;;;;;;;;;;;16.50;99.90;;;;;;5053790;28;19978;-58
2022/08/28 05:59:56;;;;;;;;;;;16.60;99.90;;;;;;5053777;28;20298;-58
2022/08/28 06:02:22;;;;;;;;;;;16.60;99.90;;;;;;5052987;28;20370;-59
2022/08/28 06:04:47;;;;;;;;;;;16.70;99.90;;;;;;5053598;28;19925;-58
2022/08/28 06:07:14;;;;;;;;;;;16.70;99.90;;;;;;5054000;28;19920;-59
2022/08/28 06:09:40;;;;;;;;;;;16.80;99.90;;;;;;5084918;28;19920;-59
2022/08/28 06:12:06;;;;;;;;;;;16.80;99.90;;;;;;5053420;28;20012;-59
2022/08/28 06:14:31;;;;;;;;;;;16.70;99.90;;;;;;5052994;28;19995;-58
2022/08/28 06:16:57;;;;;;;;;;;16.60;99.90;;;;;;5053557;28;20321;-59
2022/08/28 06:19:24;;;;;;;;;;;16.60;99.90;;;;;;5053371;28;19965;-59
2022/08/28 06:21:52;;;;;;;;;;;16.60;99.90;;;;;;5053305;28;19927;-59
2022/08/28 06:24:18;;;;;;;1999.90;999.90;;;16.60;99.90;;;;;;5051276;28;19955;-59
2022/08/28 06:26:44;;;;;;;1999.90;999.90;;;16.60;99.90;;;;;;5052726;28;20422;-59
2022/08/28 06:29:14;;;;;;;1999.90;999.90;;;16.80;99.90;;;;;;5052545;28;20049;-59
2022/08/28 06:31:40;;;;;;;;;;;17.00;99.90;;;;;;5053447;28;20048;-59
2022/08/28 06:34:06;;;;;;;;;;;17.10;99.90;;;;;;5053362;28;20027;-59
2022/08/28 06:36:33;;;;;;;;;;;17.30;99.90;;;;;;5052628;28;20015;-59
2022/08/28 06:38:59;;;;;;;;;;;17.50;99.90;;;;;;5053651;28;19921;-59
2022/08/28 06:41:26;;;;;;;;;;;17.60;99.90;;;;;;5053276;28;19921;-59
2022/08/28 06:43:52;;;;;;;;;;;17.70;99.90;;;;;;5051612;28;20352;-59
2022/08/28 06:46:17;;;;;;;;;;;17.90;99.90;;;;;;5053340;28;20290;-59
2022/08/28 06:48:43;;;;;;;;;;;17.90;99.90;;;;;;5053272;28;19921;-59
2022/08/28 06:51:10;;;;;;;;;;;18.00;99.90;;;;;;5052501;28;19923;-59
2022/08/28 06:53:36;;;;;;;;;;;18.10;99.90;;;;;;5084088;28;19920;-59
2022/08/28 06:56:06;;;;;;;;;;;18.20;99.90;;;;;;5051252;28;19921;-59
2022/08/28 06:58:32;;;;;;;;;;;18.20;99.90;;;;;;5052102;28;19921;-59
2022/08/28 07:01:00;;;;;;;;;;;18.20;99.90;;;;;;5053031;28;19921;-59
2022/08/28 07:03:26;;;;;;;;;;;18.20;99.90;;;;;;5052710;28;19920;-59
2022/08/28 07:05:56;;;;;;;;;;;18.10;99.90;;;;;;5052533;28;19928;-59
2022/08/28 07:08:23;;;;;;;;;;;18.10;99.90;;;;;;5051776;28;20435;-59
2022/08/28 07:10:49;;;;;;;;;;;18.10;99.90;;;;;;5051981;28;19932;-59
2022/08/28 07:13:14;;;;;;;;;;;18.20;99.90;;;;;;5052704;28;19920;-59
2022/08/28 07:15:40;;;;;;;;;;;18.40;99.90;;;;;;5052869;28;19921;-59
2022/08/28 07:18:06;;;;;;;;;;;18.50;99.90;;;;;;5051845;28;19944;-59
2022/08/28 07:20:31;;;;;;;;;;;18.60;99.90;;;;;;5051412;28;20290;-59
2022/08/28 07:22:57;;;;;;;;;;;;;;;;;;5053001;28;20279;-59
2022/08/28 07:25:23;;;;;;;;;;;18.90;99.20;;;;;;5051783;28;19921;-59
2022/08/28 07:27:49;;;;;;;;;;;19.00;98.70;;;;;;5052616;28;19924;-60
2022/08/28 07:30:14;;;;;;;;;;;19.20;99.30;;;;;;5052550;28;19928;-61
2022/08/28 07:32:40;;;;;;;;;;;19.30;99.10;;;;;;5052281;28;19921;-62
2022/08/28 07:35:06;;;;;;;;;;;19.50;98.90;;;;;;5051467;28;20011;-62
2022/08/28 07:37:31;;;;;;;;;;;19.50;98.80;;;;;;5054979;28;19924;-61
2022/08/28 07:39:57;;;;;;;;;;;19.50;98.70;;;;;;5054837;28;20371;-61
2022/08/28 07:45:08;;;;;;;;;;;19.60;98.00;;;;;;5056910;28;19920;-62
2022/08/28 07:47:33;;;;;;;;;;;19.70;98.20;;;;;;5087822;28;19921;-62
2022/08/28 07:50:00;;;;;;;;;;;19.70;97.90;;;;;;5056299;28;19974;-59
2022/08/28 07:52:26;;;;;;;;;;;19.80;97.40;;;;;;5055052;28;19921;-59
2022/08/28 07:54:53;;;;;;;1999.90;999.90;;;19.90;97.80;;;;;;5054596;28;20392;-59
2022/08/28 07:57:20;;;;;;;1999.90;999.90;;;19.90;97.20;;;;;;5053078;28;20098;-59
2022/08/28 07:59:46;;;;;;;1999.90;999.90;;;;;;;;;;5055859;28;20045;-59
2022/08/28 08:02:13;;;;;;;1999.90;999.90;;;;;;;;;;5055151;28;20064;-60
2022/08/28 08:04:39;;;;;;;1999.90;999.90;;;;;;;;;;5045641;28;20049;-59
2022/08/28 08:07:05;;;;;;;1999.90;999.90;;;;;;;;;;5054822;28;20056;-60
2022/08/28 08:09:35;;;;;;;1999.90;999.90;;;;;;;;;;5055300;28;20534;-60
2022/08/28 08:12:01;;;;;;;1999.90;999.90;;;;;;;;;;5054568;28;20079;-60
2022/08/28 08:14:27;;;;;;;1999.90;999.90;;;;;;;;;;5053612;28;20049;-59
2022/08/28 08:16:54;;;;;;;1999.90;999.90;;;;;;;;;;5055417;28;20045;-59
2022/08/28 08:19:20;;;;;;;1999.90;999.90;;;;;;;;;;5055169;28;20041;-60
2022/08/28 08:21:47;;;;;;;;;;;;;;;;;;5055505;28;19927;-59
2022/08/28 08:24:19;;;;;;;;;;;;;;;;;;5054417;28;20379;-60
2022/08/28 08:26:45;;;;;;;;;;;;;;;;;;5055875;28;19920;-59
2022/08/28 08:29:11;;;;;;;;;;;;;;;;;;5055368;28;19928;-59
2022/08/28 08:31:38;;;;;;;1999.90;999.90;;;;;;;;;;5054068;28;20019;-60
2022/08/28 08:34:04;;;;;;;1999.90;999.90;;;;;;;;;;5055240;28;20048;-60
2022/08/28 08:36:33;;;;;;;1999.90;999.90;;;;;;;;;;5054553;28;20098;-60
2022/08/28 08:38:59;;;;;;;1999.90;999.90;;;20.80;99.90;;;;;;5055087;28;20041;-59
2022/08/28 08:41:29;;;;;;;1999.90;999.90;;;20.90;99.90;;;;;;5055181;28;20645;-59
2022/08/28 08:43:59;;;;;;;1999.90;999.90;;;20.80;99.90;;;;;;5052962;28;20037;-59
2022/08/28 08:46:46;;;;;;;1999.90;999.90;;;20.90;99.90;;;;;;5055356;28;20044;-60
2022/08/28 08:49:18;;;;;;;1999.90;999.90;;;21.00;99.90;;;;;;5052759;28;20550;-59
2022/08/28 08:51:50;;;;;;;1999.90;999.90;;;21.00;99.90;;;;;;5053613;28;20107;-59
2022/08/28 08:54:18;;;;;;;;;;;21.00;99.90;;;;;;5055402;28;20045;-60
2022/08/28 08:56:46;;;;;;;1999.90;999.90;;;21.10;99.90;;;;;;5052955;28;19987;-60
2022/08/28 08:59:21;;;;;;;1999.90;999.90;;;21.20;99.90;;;;;;5055112;28;20056;-59
2022/08/28 09:02:04;;;;;;;1999.90;999.90;;;21.50;99.90;;;;;;5054687;28;20053;-59
2022/08/28 09:04:38;;;;;;;1999.90;999.90;;;21.40;93.10;;;;;;5054197;28;20040;-60
2022/08/28 09:07:15;;;;;;;1999.90;999.90;;;21.40;91.80;;;;;;5054604;28;20124;-60
2022/08/28 09:09:46;;;;;;;1999.90;999.90;;;21.20;91.50;;;;;;5054473;28;20553;-59
2022/08/28 09:12:23;;;;;;;1999.90;999.90;;;21.10;92.40;;;;;;5052041;28;20136;-59
2022/08/28 09:14:51;;;;;;;1999.90;999.90;;;21.20;92.90;;;;;;5053392;28;20063;-59
2022/08/28 09:17:21;;;;;;;1999.90;999.90;;;21.30;93.00;;;;;;5054064;28;20049;-59
2022/08/28 09:19:48;;;;;;;1999.90;999.90;;;21.40;93.00;;;;;;5053782;28;20037;-59
2022/08/28 09:22:14;;;;;;;1999.90;999.90;;;21.60;93.00;;;;;;5054569;28;20398;-59
2022/08/28 09:24:41;;;;;;;1999.90;999.90;;;21.50;92.20;;;;;;5052682;28;20530;-59
2022/08/28 09:27:22;;;;;;;1999.90;999.90;;;21.30;92.90;;;;;;5054674;28;20041;-59
2022/08/28 09:30:06;;;;;;;1999.90;999.90;;;21.30;92.80;;;;;;5043958;28;20037;-59
2022/08/28 09:32:37;;;;;;;1999.90;999.90;;;21.40;92.80;;;;;;5048030;28;20132;-59
2022/08/28 09:35:22;;;;;;;1999.90;999.90;;;21.40;90.90;;;;;;5054065;28;20052;-59
2022/08/28 09:37:48;;;;;;;1999.90;999.90;;;21.30;92.60;;;;;;5053882;28;20136;-59
2022/08/28 09:40:19;;;;;;;1999.90;999.90;;;21.20;93.00;;;;;;5052689;28;20453;-59
2022/08/28 09:45:44;;;;;;;1999.90;999.90;;;20.90;93.00;;;;;;5053148;28;20107;-59
2022/08/28 09:48:22;;;;;;;1999.90;999.90;;;20.70;94.10;;;;;;5052152;28;20037;-59
2022/08/28 09:50:57;;;;;;;1999.90;999.90;;;20.50;93.90;;;;;;5050382;28;20056;-59
2022/08/28 09:53:24;;;;;;;1999.90;999.90;;;20.30;94.50;;;;;;5052572;28;20498;-59
2022/08/28 09:56:02;;;;;;;1999.90;999.90;;;20.20;94.50;;;;;;5053734;28;20045;-59
2022/08/28 09:58:35;;;;;;;1999.90;999.90;;;20.10;93.10;;;;;;5053164;28;20060;-59
2022/08/28 10:01:14;;;;;;;1999.90;999.90;;;20.00;93.80;;;;;;5032154;28;20344;-59
2022/08/28 10:03:52;;;;;;;1999.90;999.90;;;20.00;93.40;;;;;;5033547;28;20085;-59
2022/08/28 10:06:25;;;;;;;1999.90;999.90;;;20.00;92.80;;;;;;5043535;28;20045;-59
2022/08/28 10:08:50;;;;;;;1999.90;999.90;;;20.10;93.40;;;;;;5050906;28;20052;-59
2022/08/28 10:11:25;;;;;;;1999.90;999.90;;;20.40;93.50;;;;;;5053454;28;20537;-59
2022/08/28 10:14:00;;;;;;;1999.90;999.90;;;20.80;93.20;;;;;;5052012;28;20426;-59
2022/08/28 10:16:51;;;;;;;1999.90;999.90;;;21.20;90.80;;;;;;5052451;28;20530;-59
2022/08/28 10:19:30;;;;;;;1999.90;999.90;;;21.20;91.40;;;;;;5053140;28;20048;-59
2022/08/28 10:22:26;;;;;;;1999.90;999.90;;;21.40;92.10;;;;;;5052656;28;20057;-59
2022/08/28 10:25:15;;;;;;;1999.90;999.90;;;22.10;91.60;;;;;;5052278;28;20045;-59
2022/08/28 10:28:07;;;;;;;1999.90;999.90;;;22.80;88.20;;;;;;5049662;28;20049;-59
2022/08/28 10:30:38;;;;;;;1999.90;999.90;;;22.90;86.90;;;;;;5051267;28;20049;-59
2022/08/28 10:33:20;;;;;;;1999.90;999.90;;;22.80;87.20;;;;;;5052415;28;20041;-59
2022/08/28 10:36:00;;;;;;;1999.90;999.90;;;22.60;88.50;;;;;;5050442;28;20056;-59
2022/08/28 10:38:40;;;;;;;1999.90;999.90;;;22.40;90.10;;;;;;5053029;28;20045;-60
2022/08/28 10:41:19;;;;;;;1999.90;999.90;;;22.20;90.80;;;;;;5053156;28;20120;-60
2022/08/28 10:43:48;;;;;;;1999.90;999.90;;;21.70;88.20;;;;;;5051936;28;20061;-60
2022/08/28 10:46:28;;;;;;;1999.90;999.90;;;21.60;89.70;;;;;;5052835;28;20051;-60
2022/08/28 10:49:04;;;;;;;1999.90;999.90;;;21.60;89.20;;;;;;5038611;28;20049;-60
2022/08/28 10:51:38;;;;;;;1999.90;999.90;;;21.20;90.20;;;;;;5042684;28;20045;-60
2022/08/28 10:54:20;;;;;;;1999.90;999.90;;;20.90;89.50;;;;;;5051016;28;20056;-60
2022/08/28 10:56:54;;;;;;;1999.90;999.90;;;20.80;90.40;;;;;;5032135;28;20048;-60
2022/08/28 10:59:21;;;;;;;1999.90;999.90;;;21.80;88.70;;;;;;5032799;28;20136;-59
2022/08/28 11:01:48;;;;;;;1999.90;999.90;;;22.90;86.50;;;;;;5042980;28;20399;-60
2022/08/28 11:04:19;;;;;;;1999.90;999.90;;;23.40;81.90;;;;;;5051400;28;20048;-60
2022/08/28 11:07:07;;;;;;;1999.90;999.90;;;22.50;85.40;;;;;;5050662;28;20045;-60
2022/08/28 11:09:46;;;;;;;1999.90;999.90;;;21.60;89.20;;;;;;5034143;28;20060;-60
2022/08/28 11:12:15;;;;;;;1999.90;999.90;;;21.30;90.80;;;;;;5050998;28;20103;-60
2022/08/28 11:14:44;;;;;;;1999.90;999.90;;;21.40;90.70;;;;;;5052031;28;20053;-60
2022/08/28 11:17:35;;;;;;;1999.90;999.90;;;21.80;90.50;;;;;;5051579;28;20445;-60
2022/08/28 11:20:23;;;;;;;1999.90;999.90;;;22.90;88.00;;;;;;5052163;28;20040;-60
2022/08/28 11:23:05;;;;;;;1999.90;999.90;;;23.50;86.90;;;;;;5051543;28;20044;-60
2022/08/28 11:25:33;;;;;;;1999.90;999.90;;;;;;;;;;5051528;28;20053;-60
2022/08/28 11:28:18;;;;;;;1999.90;999.90;;;25.20;80.40;;;;;;5051913;28;20035;-60
2022/08/28 11:30:46;;;;;;;1999.90;999.90;;;24.40;76.60;;;;;;5051811;28;20068;-60
2022/08/28 11:33:36;;;;;;;1999.90;999.90;;;23.40;78.80;;;;;;5051475;28;20053;-61
2022/08/28 11:36:09;;;;;;;1999.90;999.90;;;23.20;82.30;;;;;;5051669;28;20055;-60
2022/08/28 11:38:40;;;;;;;;;;;24.00;79.30;;;;;;5051314;28;20063;-61
2022/08/28 11:41:16;;;;;;;1999.90;999.90;;;24.30;77.50;;;;;;5052257;28;20057;-61
2022/08/28 11:43:44;;;;;;;1999.90;999.90;;;24.70;76.30;;;;;;5052258;28;20053;-61
2022/08/28 11:46:24;;;;;;;1999.90;999.90;;;24.80;75.60;;;;;;5050567;28;20460;-61
2022/08/28 11:48:53;;;;;;;1999.90;999.90;;;24.00;79.00;;;;;;5052271;28;20052;-60
2022/08/28 11:51:39;;;;;;;1999.90;999.90;;;23.10;81.00;;;;;;5052315;28;20045;-60
2022/08/28 11:54:26;;;;;;;1999.90;999.90;;;22.60;84.50;;;;;;5050613;28;20048;-60
2022/08/28 11:57:07;;;;;;;1999.90;999.90;;;22.30;84.70;;;;;;5050304;28;20091;-60
2022/08/28 11:59:42;;;;;;;1999.90;999.90;;;22.10;83.30;;;;;;5048662;28;20053;-61
2022/08/28 12:02:35;;;;;;;1999.90;999.90;;;21.60;87.20;;;;;;5051988;28;20049;-61
2022/08/28 12:05:14;;;;;;;1999.90;999.90;;;22.30;85.50;;;;;;5050207;28;20057;-60
2022/08/28 12:07:41;;;;;;;1999.90;999.90;;;23.50;81.80;;;;;;5050911;28;20123;-60
2022/08/28 12:10:28;;;;;;;1999.90;999.90;;;23.80;79.80;;;;;;5052351;28;20049;-60
2022/08/28 12:13:02;;;;;;;1999.90;999.90;;;24.00;79.30;;;;;;5051482;28;20076;-60
2022/08/28 12:15:29;;;;;;;1999.90;999.90;;;24.60;76.80;;;;;;5044224;28;20049;-60
2022/08/28 12:18:02;;;;;;;1999.90;999.90;;;24.00;75.30;;;;;;5045883;28;20044;-60
2022/08/28 12:20:31;;;;;;;;;;;23.00;77.80;;;;;;5051416;28;20153;-61
2022/08/28 12:23:00;;;;;;;1999.90;999.90;;;22.80;80.90;;;;;;5052562;28;19921;-60
2022/08/28 12:25:37;;;;;;;1999.90;999.90;;;22.70;78.70;;;;;;5055060;28;20053;-60
2022/08/28 12:28:24;;;;;;;1999.90;999.90;;;22.70;79.10;;;;;;5034802;28;20188;-60
2022/08/28 12:31:03;;;;;;;1999.90;999.90;;;22.80;79.20;;;;;;5050452;28;20048;-60
2022/08/28 12:33:37;;;;;;;1999.90;999.90;;;22.60;81.10;;;;;;5055287;28;20502;-61
2022/08/28 12:36:10;;;;;;;1999.90;999.90;;;22.70;81.30;;;;;;5053685;28;20095;-60
2022/08/28 12:38:36;;;;;;;1999.90;999.90;;;23.00;79.90;;;;;;5054509;28;20049;-60
2022/08/28 12:41:02;;;;;;;1999.90;999.90;;;23.50;79.70;;;;;;5055067;28;20411;-60
2022/08/28 12:43:39;;;;;;;1999.90;999.90;;;23.60;79.20;;;;;;5053765;28;20435;-60
2022/08/28 12:46:36;;;;;;;1999.90;999.90;;;23.70;78.10;;;;;;5055188;28;20049;-60
2022/08/28 12:49:04;;;;;;;1999.90;999.90;;;23.60;78.80;;;;;;5054112;28;20049;-61
2022/08/28 12:51:34;;;;;;;1999.90;999.90;;;23.90;78.40;;;;;;5054832;28;20079;-60
2022/08/28 12:54:03;;;;;;;1999.90;999.90;;;24.60;76.80;;;;;;5053054;28;20052;-61
2022/08/28 12:56:33;;;;;;;1999.90;999.90;;;25.00;75.80;;;;;;5051378;28;20056;-61
2022/08/28 12:59:23;;;;;;;1999.90;999.90;;;24.30;77.60;;;;;;5052950;28;20045;-60
2022/08/28 13:01:49;;;;;;;1999.90;999.90;;;24.30;77.00;;;;;;5055164;28;20127;-60
2022/08/28 13:04:31;;;;;;;1999.90;999.90;;;24.60;76.40;;;;;;5054265;28;20056;-60